Ash Fork, Arizona
Current Conditions -  °F | °C
As of 11:53 PM on Monday 20 Oct 2014 (Local Time) from KPRC Reporting Station
Clear Clear  
Wind Chill: 50°   Ceiling: Unl
Heat Index: 50°   Visibility: 10mi
Dew Point: 40°   Wind: 8mph
Humidity: 68%   Direction: 190°S
Pressure: 30.08"   Gusts: NA
Location:  35.23°N, 112.49°W
Report Text: KPRC 210653Z AUTO 19007KT 10SM CLR 10/04 A3008 RMK AO2 SLP125 T01000044 402330067
Loading
Personal Weather Stations






























Interactive Weather Map
Tropical Storm Tracking
New forecast layout! Learn more

10-Day Weather Forecast

Advertisements
Track Severe Weather on mobile